Time;durP1;ratioP1;P1;durP2;ratioP2;P2;SDS_P1;SDS_P2;PMS_P1;PMS_P2;Temp;Humidity;BMP_temperature;BMP_pressure;BME280_temperature;BME280_humidity;BME280_pressure;Samples;Min_cycle;Max_cycle;Signal;HPM_P1;HPM_P2
2020/12/19 00:01:58;;;;;;;22.93;16.80;;;6.40;99.90;;;;;;4391931;32;20259;-66
2020/12/19 00:04:24;;;;;;;23.87;16.87;;;6.30;99.90;;;;;;4403923;32;20145;-70
2020/12/19 00:06:50;;;;;;;22.17;16.47;;;6.30;99.90;;;;;;4399447;32;20238;-68
2020/12/19 00:09:17;;;;;;;24.17;15.87;;;6.30;99.90;;;;;;4392003;32;20228;-67
2020/12/19 00:11:44;;;;;;;22.03;17.27;;;6.30;99.90;;;;;;4393425;32;20163;-68
2020/12/19 00:14:10;;;;;;;22.90;16.17;;;6.40;99.90;;;;;;4398213;32;20171;-68
2020/12/19 00:16:40;;;;;;;20.73;15.87;;;6.40;99.90;;;;;;4389651;32;20235;-67
2020/12/19 00:19:06;;;;;;;25.97;15.77;;;6.30;99.90;;;;;;4391099;32;20143;-67
2020/12/19 00:21:33;;;;;;;22.83;15.73;;;6.40;99.90;;;;;;4392725;32;20290;-68
2020/12/19 00:24:02;;;;;;;21.00;15.23;;;6.30;99.90;;;;;;4399081;32;20199;-67
2020/12/19 00:26:32;;;;;;;23.10;16.03;;;6.30;99.90;;;;;;4390240;32;20148;-67
2020/12/19 00:28:59;;;;;;;23.40;16.27;;;6.30;99.90;;;;;;4392546;32;20218;-67
2020/12/19 00:31:27;;;;;;;20.60;15.60;;;6.30;99.90;;;;;;4390323;32;20472;-68
2020/12/19 00:33:54;;;;;;;22.10;16.20;;;6.30;99.90;;;;;;4390760;32;20512;-69
2020/12/19 00:36:20;;;;;;;22.03;15.33;;;6.20;99.90;;;;;;4390697;32;20163;-67
2020/12/19 00:38:47;;;;;;;23.30;15.27;;;6.30;99.90;;;;;;4390036;32;20617;-68
2020/12/19 00:41:20;;;;;;;22.67;16.00;;;6.40;99.90;;;;;;4391151;32;20182;-68
2020/12/19 00:43:47;;;;;;;23.97;15.20;;;6.30;99.90;;;;;;4397091;32;20152;-65
2020/12/19 00:46:14;;;;;;;22.97;15.97;;;6.20;99.90;;;;;;4390150;32;20160;-68
2020/12/19 00:48:40;;;;;;;24.63;16.90;;;6.10;99.90;;;;;;4391416;32;20490;-68
2020/12/19 00:51:12;;;;;;;23.63;16.07;;;6.20;99.90;;;;;;4395225;32;20171;-66
2020/12/19 00:53:40;;;;;;;24.47;16.70;;;6.20;99.90;;;;;;4396772;32;20166;-67
2020/12/19 00:56:16;;;;;;;23.43;16.43;;;6.10;99.90;;;;;;4394738;32;20231;-66
2020/12/19 00:58:43;;;;;;;22.43;15.80;;;6.30;99.90;;;;;;4397491;32;20148;-68
2020/12/19 01:01:09;;;;;;;23.90;16.10;;;6.10;99.90;;;;;;4395017;32;20198;-67
2020/12/19 01:03:35;;;;;;;25.20;15.90;;;6.20;99.90;;;;;;4389840;32;20558;-68
2020/12/19 01:06:01;;;;;;;22.63;16.60;;;6.10;99.90;;;;;;4394453;32;20274;-66
2020/12/19 01:08:31;;;;;;;19.80;15.43;;;6.00;99.90;;;;;;4392669;32;20152;-67
2020/12/19 01:11:01;;;;;;;24.30;16.60;;;6.10;99.90;;;;;;4397070;32;20163;-66
2020/12/19 01:13:30;;;;;;;23.13;15.40;;;6.10;99.90;;;;;;4402498;32;20214;-67
2020/12/19 01:15:56;;;;;;;21.97;15.27;;;6.10;99.90;;;;;;4393951;32;20207;-66
2020/12/19 01:18:22;;;;;;;23.83;15.93;;;6.10;99.90;;;;;;4393862;32;20495;-67
2020/12/19 01:20:51;;;;;;;21.87;16.97;;;6.10;99.90;;;;;;4397776;32;20148;-66
2020/12/19 01:23:17;;;;;;;23.17;15.97;;;6.00;99.90;;;;;;4390886;32;20201;-67
2020/12/19 01:25:44;;;;;;;23.67;15.70;;;5.90;99.90;;;;;;4393676;32;20753;-67
2020/12/19 01:30:55;;;;;;;26.43;17.63;;;6.00;99.90;;;;;;4341971;33;20180;-66
2020/12/19 01:33:28;;;;;;;26.03;18.13;;;6.00;99.90;;;;;;4341511;33;20483;-66
2020/12/19 01:35:57;;;;;;;26.30;17.00;;;6.00;99.90;;;;;;4341929;33;20228;-66
2020/12/19 01:38:23;;;;;;;24.60;16.90;;;6.00;99.90;;;;;;4334919;33;20177;-68
2020/12/19 01:40:52;;;;;;;26.07;17.20;;;6.00;99.90;;;;;;4338007;33;20197;-67
2020/12/19 01:43:18;;;;;;;27.50;18.00;;;6.10;99.90;;;;;;4338935;33;20613;-67
2020/12/19 01:45:45;;;;;;;27.07;17.80;;;6.00;99.90;;;;;;4345223;33;20229;-67
2020/12/19 01:48:19;;;;;;;26.20;17.67;;;5.90;99.90;;;;;;4335632;33;20157;-66
2020/12/19 01:50:47;;;;;;;27.00;17.83;;;5.90;99.90;;;;;;4342783;33;20235;-66
2020/12/19 01:53:17;;;;;;;25.47;18.83;;;5.80;99.90;;;;;;4339118;33;20588;-66
2020/12/19 01:55:51;;;;;;;28.07;19.17;;;5.80;99.90;;;;;;4340970;33;20236;-66
2020/12/19 01:58:21;;;;;;;28.00;18.13;;;5.90;99.90;;;;;;4341821;33;20288;-66
2020/12/19 02:00:47;;;;;;;30.20;18.57;;;5.90;99.90;;;;;;4342717;33;20204;-66
2020/12/19 02:03:13;;;;;;;25.10;17.70;;;5.80;99.90;;;;;;4345041;33;20239;-66
2020/12/19 02:05:42;;;;;;;25.90;17.10;;;5.80;99.90;;;;;;4345290;33;20188;-68
2020/12/19 02:08:11;;;;;;;28.57;18.77;;;5.80;99.90;;;;;;4365553;32;20211;-66
2020/12/19 02:10:37;;;;;;;32.77;18.77;;;5.80;99.90;;;;;;4399513;32;20568;-66
2020/12/19 02:13:07;;;;;;;28.30;19.00;;;5.70;99.90;;;;;;4394907;32;20163;-66
2020/12/19 02:15:44;;;;;;;28.00;19.60;;;5.70;99.90;;;;;;4398901;32;20237;-65
2020/12/19 02:18:11;;;;;;;31.40;20.43;;;5.60;99.90;;;;;;4393015;32;20231;-66
2020/12/19 02:20:38;;;;;;;29.10;18.83;;;5.70;99.90;;;;;;4397259;32;20163;-66
2020/12/19 02:23:06;;;;;;;32.50;20.53;;;5.60;99.90;;;;;;4394063;32;20155;-66
2020/12/19 02:25:35;;;;;;;29.27;19.70;;;5.60;99.90;;;;;;4394796;32;20578;-67
2020/12/19 02:28:02;;;;;;;31.80;20.17;;;5.60;99.90;;;;;;4395261;32;20186;-67
2020/12/19 02:30:29;;;;;;;33.33;21.03;;;5.60;99.90;;;;;;4401850;32;20241;-67
2020/12/19 02:32:59;;;;;;;32.30;19.93;;;5.60;99.90;;;;;;4398268;32;20140;-68
2020/12/19 02:35:26;;;;;;;32.97;20.57;;;5.60;99.90;;;;;;4393497;32;20148;-67
2020/12/19 02:37:55;;;;;;;32.50;21.23;;;5.60;99.90;;;;;;4402660;32;20151;-68
2020/12/19 02:40:22;;;;;;;33.03;20.77;;;5.70;99.90;;;;;;4396864;32;20209;-67
2020/12/19 02:42:53;;;;;;;30.13;21.03;;;5.70;99.90;;;;;;4396247;32;20197;-67
2020/12/19 02:45:23;;;;;;;34.30;21.60;;;5.60;99.90;;;;;;4391308;32;20155;-66
2020/12/19 02:47:49;;;;;;;32.23;21.87;;;5.60;99.90;;;;;;4397365;32;20228;-66
2020/12/19 02:50:15;;;;;;;33.57;21.73;;;5.60;99.90;;;;;;4401762;32;20147;-66
2020/12/19 02:52:42;;;;;;;32.27;21.43;;;5.60;99.90;;;;;;4405237;32;20630;-65
2020/12/19 02:55:08;;;;;;;38.77;23.17;;;5.60;99.90;;;;;;4394780;32;20220;-66
2020/12/19 02:57:34;;;;;;;34.20;21.13;;;5.70;99.90;;;;;;4399297;32;20215;-67
2020/12/19 03:00:05;;;;;;;36.50;23.03;;;5.70;99.90;;;;;;4396826;32;20246;-66
2020/12/19 03:02:34;;;;;;;35.87;22.53;;;5.70;99.90;;;;;;4395026;32;20418;-66
2020/12/19 03:05:00;;;;;;;34.50;22.30;;;5.70;99.90;;;;;;4394957;32;20239;-66
2020/12/19 03:07:27;;;;;;;36.27;22.77;;;5.60;99.90;;;;;;4396504;32;20619;-66
2020/12/19 03:09:56;;;;;;;34.30;22.60;;;5.80;99.90;;;;;;4394002;32;20227;-67
2020/12/19 03:12:22;;;;;;;39.03;22.50;;;5.60;99.90;;;;;;4391502;32;20640;-67
2020/12/19 03:14:48;;;;;;;37.27;22.80;;;5.60;99.90;;;;;;4401865;32;20223;-67
2020/12/19 03:17:15;;;;;;;37.87;22.97;;;5.60;99.90;;;;;;4393543;32;20227;-66
2020/12/19 03:19:42;;;;;;;34.73;21.87;;;5.60;99.90;;;;;;4399948;32;20219;-67
2020/12/19 03:22:08;;;;;;;35.43;21.53;;;5.70;99.90;;;;;;4396432;32;20141;-67
2020/12/19 03:24:34;;;;;;;36.50;22.40;;;5.60;99.90;;;;;;4402620;32;20261;-67
2020/12/19 03:27:00;;;;;;;35.03;21.37;;;5.60;99.90;;;;;;4391477;32;20544;-67
2020/12/19 03:29:29;;;;;;;36.33;22.03;;;5.50;99.90;;;;;;4401948;32;20528;-66
2020/12/19 03:31:55;;;;;;;40.90;23.87;;;5.60;99.90;;;;;;4396386;32;20174;-66
2020/12/19 03:34:34;;;;;;;35.53;22.80;;;5.60;99.90;;;;;;4392483;32;20144;-67
2020/12/19 03:37:01;;;;;;;34.90;22.90;;;5.60;99.90;;;;;;4398727;32;20169;-66
2020/12/19 03:39:27;;;;;;;38.10;23.17;;;5.60;99.90;;;;;;4403144;32;20229;-66
2020/12/19 03:41:53;;;;;;;39.83;24.27;;;5.60;99.90;;;;;;4396649;32;20170;-66
2020/12/19 03:44:20;;;;;;;36.83;22.87;;;5.60;99.90;;;;;;4390560;32;20258;-67
2020/12/19 03:46:46;;;;;;;32.97;23.20;;;5.60;99.90;;;;;;4391863;32;20312;-66
2020/12/19 03:49:16;;;;;;;34.90;23.47;;;5.60;99.90;;;;;;4391595;32;20201;-67
2020/12/19 03:51:48;;;;;;;36.00;22.33;;;5.60;99.90;;;;;;4396757;32;20209;-67
2020/12/19 03:54:22;;;;;;;39.10;23.53;;;5.70;99.90;;;;;;4392866;32;20148;-67
2020/12/19 03:56:55;;;;;;;36.17;22.90;;;5.70;99.90;;;;;;4393977;32;20225;-67
2020/12/19 03:59:21;;;;;;;39.17;23.70;;;5.70;99.90;;;;;;4392514;32;20144;-66
2020/12/19 04:01:47;;;;;;;35.93;21.90;;;5.70;99.90;;;;;;4393607;32;20182;-66
2020/12/19 04:04:16;;;;;;;38.13;23.90;;;5.70;99.90;;;;;;4392699;32;20151;-66
2020/12/19 04:06:43;;;;;;;37.47;21.53;;;5.70;99.90;;;;;;4401394;32;20192;-66
2020/12/19 04:09:12;;;;;;;33.97;21.67;;;5.70;99.90;;;;;;4391294;32;20163;-67
2020/12/19 04:11:40;;;;;;;44.40;24.90;;;5.70;99.90;;;;;;4396840;32;20149;-67
2020/12/19 04:14:06;;;;;;;40.67;24.07;;;5.60;99.90;;;;;;4397988;32;20574;-67
2020/12/19 04:16:32;;;;;;;36.50;22.30;;;5.60;99.90;;;;;;4399072;32;20152;-66
2020/12/19 04:18:59;;;;;;;36.97;23.60;;;5.60;99.90;;;;;;4390068;32;20152;-67
2020/12/19 04:21:26;;;;;;;38.27;24.20;;;5.60;99.90;;;;;;4395234;32;20140;-66
2020/12/19 04:23:53;;;;;;;39.20;22.93;;;5.70;99.90;;;;;;4389629;32;20191;-67
2020/12/19 04:26:19;;;;;;;36.50;21.97;;;5.60;99.90;;;;;;4390893;32;20312;-66
2020/12/19 04:28:45;;;;;;;41.47;23.87;;;5.70;99.90;;;;;;4393739;32;20251;-67
2020/12/19 04:31:14;;;;;;;39.97;24.57;;;5.70;99.90;;;;;;4389770;32;20168;-66
2020/12/19 04:33:40;;;;;;;38.53;23.50;;;5.70;99.90;;;;;;4392075;32;20207;-66
2020/12/19 04:36:06;;;;;;;41.27;24.40;;;5.70;99.90;;;;;;4390940;32;20663;-66
2020/12/19 04:38:32;;;;;;;38.73;23.97;;;5.70;99.90;;;;;;4390968;32;20278;-67
2020/12/19 04:41:13;;;;;;;40.23;23.67;;;5.70;99.90;;;;;;4399549;32;20151;-67
2020/12/19 04:43:42;;;;;;;37.33;23.30;;;5.70;99.90;;;;;;4391779;32;20508;-67
2020/12/19 04:46:10;;;;;;;43.83;24.90;;;5.80;99.90;;;;;;4390335;32;20178;-67
2020/12/19 04:48:36;;;;;;;42.67;26.03;;;5.70;99.90;;;;;;4401338;32;20200;-67
2020/12/19 04:51:05;;;;;;;41.30;25.60;;;5.70;99.90;;;;;;4389503;32;20170;-67
2020/12/19 04:53:32;;;;;;;42.40;24.70;;;5.70;99.90;;;;;;4393953;32;20235;-66
2020/12/19 04:55:59;;;;;;;42.50;24.73;;;5.80;99.90;;;;;;4401738;32;20306;-66
2020/12/19 04:58:30;;;;;;;42.33;25.97;;;5.80;99.90;;;;;;4391109;32;20166;-66
2020/12/19 05:00:58;;;;;;;41.27;23.70;;;5.80;99.90;;;;;;4393873;32;20681;-66
2020/12/19 05:03:28;;;;;;;39.43;24.10;;;5.90;99.90;;;;;;4400330;32;20155;-65
2020/12/19 05:05:54;;;;;;;47.10;25.10;;;5.80;99.90;;;;;;4391335;32;20234;-66
2020/12/19 05:08:20;;;;;;;38.73;24.20;;;5.80;99.90;;;;;;4401776;32;20256;-66
2020/12/19 05:10:46;;;;;;;44.13;25.10;;;5.80;99.90;;;;;;4400277;32;20214;-67
2020/12/19 05:13:13;;;;;;;44.23;24.73;;;5.80;99.90;;;;;;4405402;32;20203;-68
2020/12/19 05:15:40;;;;;;;41.73;25.70;;;5.80;99.90;;;;;;4390237;32;20140;-68
2020/12/19 05:18:09;;;;;;;36.73;23.27;;;5.80;99.90;;;;;;4395220;32;20583;-68
2020/12/19 05:20:38;;;;;;;39.07;24.27;;;5.80;99.90;;;;;;4404820;32;20159;-66
2020/12/19 05:23:12;;;;;;;40.27;23.57;;;5.80;99.90;;;;;;4398333;32;20637;-66
2020/12/19 05:25:39;;;;;;;43.50;24.27;;;5.90;99.90;;;;;;4389819;32;20167;-68
2020/12/19 05:28:05;;;;;;;41.97;24.93;;;5.90;99.90;;;;;;4392383;32;20144;-67
2020/12/19 05:30:37;;;;;;;43.03;23.27;;;5.80;99.90;;;;;;4389655;32;20182;-67
2020/12/19 05:33:04;;;;;;;38.03;24.53;;;5.90;99.90;;;;;;4389295;32;20162;-66
2020/12/19 05:35:31;;;;;;;36.17;22.23;;;5.90;99.90;;;;;;4399703;32;20231;-65
2020/12/19 05:38:02;;;;;;;34.63;21.97;;;5.90;99.90;;;;;;4404305;32;20174;-66
2020/12/19 05:40:30;;;;;;;37.40;23.37;;;5.90;99.90;;;;;;4396914;32;20224;-67
2020/12/19 05:42:56;;;;;;;40.10;23.87;;;5.90;99.90;;;;;;4399699;32;20564;-67
2020/12/19 05:45:24;;;;;;;41.20;23.40;;;5.90;99.90;;;;;;4395349;32;20270;-66
2020/12/19 05:47:52;;;;;;;40.50;23.13;;;5.90;99.90;;;;;;4395586;32;20258;-66
2020/12/19 05:50:21;;;;;;;39.43;24.23;;;5.90;99.90;;;;;;4402318;32;20144;-67
2020/12/19 05:52:47;;;;;;;39.50;24.77;;;5.90;99.90;;;;;;4397629;32;20179;-67
2020/12/19 05:55:15;;;;;;;39.33;24.13;;;5.90;99.90;;;;;;4399327;32;20580;-67
2020/12/19 05:57:42;;;;;;;35.80;22.50;;;5.90;99.90;;;;;;4404132;32;20217;-67
2020/12/19 06:00:14;;;;;;;34.67;22.13;;;5.80;99.90;;;;;;4397702;32;20175;-65
2020/12/19 06:02:52;;;;;;;34.63;21.77;;;6.10;99.90;;;;;;4396727;32;20188;-66
2020/12/19 06:05:21;;;;;;;37.87;22.70;;;6.00;99.90;;;;;;4389067;32;20269;-67
2020/12/19 06:07:49;;;;;;;39.07;24.07;;;6.00;99.90;;;;;;4397382;32;20144;-68
2020/12/19 06:10:22;;;;;;;37.10;23.43;;;6.00;99.90;;;;;;4391037;32;20228;-66
2020/12/19 06:13:03;;;;;;;35.83;21.30;;;6.00;99.90;;;;;;4398540;32;20223;-67
2020/12/19 06:15:42;;;;;;;35.53;22.90;;;6.00;99.90;;;;;;4391440;32;20148;-68
2020/12/19 06:18:16;;;;;;;37.87;23.17;;;5.90;99.90;;;;;;4390977;32;20166;-66
2020/12/19 06:20:45;;;;;;;41.83;22.83;;;5.90;99.90;;;;;;4391047;32;20170;-65
2020/12/19 06:23:19;;;;;;;35.10;22.60;;;6.10;99.90;;;;;;4393893;32;20617;-67
2020/12/19 06:25:48;;;;;;;34.93;22.80;;;5.90;99.90;;;;;;4393372;32;20216;-66
2020/12/19 06:29:00;;;;;;;37.70;23.07;;;5.90;99.90;;;;;;4396509;32;20171;-66
2020/12/19 06:31:26;;;;;;;49.27;23.43;;;5.90;99.90;;;;;;4338824;33;20181;-67
2020/12/19 06:33:55;;;;;;;37.97;21.77;;;5.90;99.90;;;;;;4341888;33;20680;-65
2020/12/19 06:36:28;;;;;;;42.27;23.30;;;6.00;99.90;;;;;;4344523;33;20165;-67
2020/12/19 06:38:59;;;;;;;34.63;21.27;;;6.00;99.90;;;;;;4342650;33;20157;-66
2020/12/19 06:41:46;;;;;;;36.63;23.20;;;5.90;99.90;;;;;;4344012;33;20616;-66
2020/12/19 06:44:16;;;;;;;35.60;21.13;;;6.00;99.90;;;;;;4338077;33;20236;-68
2020/12/19 06:46:52;;;;;;;37.60;22.47;;;5.90;99.90;;;;;;4339096;33;20211;-66
2020/12/19 06:49:37;;;;;;;32.00;21.03;;;6.00;99.90;;;;;;4342294;33;20521;-66
2020/12/19 06:52:11;;;;;;;33.30;21.87;;;6.00;99.90;;;;;;4344228;33;20211;-66
2020/12/19 06:54:40;;;;;;;31.37;20.97;;;6.00;99.90;;;;;;4344229;33;20157;-68
2020/12/19 06:57:22;;;;;;;32.70;20.60;;;6.00;99.90;;;;;;4343373;33;20292;-68
2020/12/19 06:59:49;;;;;;;35.13;21.47;;;6.00;99.90;;;;;;4342545;33;20593;-66
2020/12/19 07:02:17;;;;;;;33.27;20.07;;;6.00;99.90;;;;;;4342895;33;20279;-67
2020/12/19 07:04:49;;;;;;;34.03;21.40;;;6.10;99.90;;;;;;4333535;33;20199;-65
2020/12/19 07:07:27;;;;;;;33.57;21.47;;;6.00;99.90;;;;;;4351120;32;20168;-69
2020/12/19 07:10:03;;;;;;;32.97;21.43;;;6.00;99.90;;;;;;4394832;32;20172;-66
2020/12/19 07:12:36;;;;;;;39.40;20.87;;;5.90;99.90;;;;;;4396068;32;20148;-67
2020/12/19 07:15:10;;;;;;;36.07;21.13;;;6.00;99.90;;;;;;4404340;32;20510;-67
2020/12/19 07:17:47;;;;;;;35.20;21.47;;;6.10;99.90;;;;;;4396529;32;20147;-67
2020/12/19 07:20:23;;;;;;;32.03;19.77;;;6.10;99.90;;;;;;4399227;32;20226;-70
2020/12/19 07:22:51;;;;;;;35.53;21.50;;;6.00;99.90;;;;;;4395114;32;20206;-67
2020/12/19 07:25:24;;;;;;;32.27;20.00;;;6.30;99.90;;;;;;4402285;32;20258;-69
2020/12/19 07:27:56;;;;;;;32.70;20.47;;;6.10;99.90;;;;;;4402857;32;20184;-69
2020/12/19 07:30:25;;;;;;;31.03;20.50;;;6.20;99.90;;;;;;4392972;32;20140;-68
2020/12/19 07:32:55;;;;;;;34.13;22.00;;;6.20;99.90;;;;;;4395015;32;20219;-68
2020/12/19 07:35:22;;;;;;;32.33;19.80;;;6.20;99.90;;;;;;4104973;32;9662198;-68
2020/12/19 07:37:53;;;;;;;30.50;19.83;;;6.20;99.90;;;;;;4392303;32;20185;-67
2020/12/19 07:40:21;;;;;;;31.67;19.93;;;6.20;99.90;;;;;;4396386;32;20228;-67
2020/12/19 07:42:47;;;;;;;29.13;18.70;;;6.20;99.90;;;;;;4391610;32;20187;-68
2020/12/19 07:45:21;;;;;;;33.33;20.43;;;6.10;99.90;;;;;;4395595;32;20152;-68
2020/12/19 07:47:50;;;;;;;28.17;17.47;;;6.30;99.90;;;;;;4392995;32;20158;-67
2020/12/19 07:50:24;;;;;;;27.43;18.63;;;6.30;99.90;;;;;;4393720;32;20576;-68
2020/12/19 07:53:02;;;;;;;35.17;20.43;;;6.40;99.90;;;;;;4390294;32;20187;-68
2020/12/19 07:55:29;;;;;;;29.47;19.43;;;6.40;99.90;;;;;;4391106;32;20151;-65
2020/12/19 07:57:56;;;;;;;31.03;19.60;;;6.40;99.90;;;;;;4390471;32;20151;-67
2020/12/19 08:00:24;;;;;;;28.63;19.40;;;6.50;99.90;;;;;;4390601;32;20239;-68
2020/12/19 08:02:51;;;;;;;26.97;18.57;;;6.50;99.90;;;;;;4389969;32;20281;-68
2020/12/19 08:05:17;;;;;;;23.73;16.50;;;6.50;99.90;;;;;;4394554;32;20520;-68
2020/12/19 08:07:44;;;;;;;27.33;18.50;;;6.50;99.90;;;;;;4403212;32;20220;-67
2020/12/19 08:10:15;;;;;;;30.63;18.83;;;6.50;99.90;;;;;;4399274;32;20231;-66
2020/12/19 08:12:42;;;;;;;29.87;20.30;;;6.50;99.90;;;;;;4392459;32;20168;-67
2020/12/19 08:15:11;;;;;;;29.03;18.80;;;6.50;99.90;;;;;;4394711;32;20221;-69
2020/12/19 08:17:47;;;;;;;26.67;18.00;;;6.60;99.90;;;;;;4390952;32;20180;-68
2020/12/19 08:20:19;;;;;;;27.27;17.37;;;6.60;99.90;;;;;;4396557;32;20674;-69
2020/12/19 08:22:46;;;;;;;31.30;19.90;;;6.70;99.90;;;;;;4391282;32;20160;-66
2020/12/19 08:25:16;;;;;;;24.63;16.80;;;6.70;99.90;;;;;;4395019;32;20174;-67
2020/12/19 08:27:47;;;;;;;24.90;16.37;;;6.70;99.90;;;;;;4396005;32;20583;-68
2020/12/19 08:30:19;;;;;;;27.37;18.90;;;6.70;99.90;;;;;;4392094;32;20554;-66
2020/12/19 08:32:51;;;;;;;26.27;17.67;;;6.80;99.90;;;;;;4396558;32;20213;-69
2020/12/19 08:35:22;;;;;;;26.63;18.40;;;6.80;99.90;;;;;;4398244;32;20207;-68
2020/12/19 08:40:41;;;;;;;25.57;17.47;;;6.90;99.90;;;;;;4389818;32;20243;-67
2020/12/19 08:43:13;;;;;;;23.43;16.93;;;6.90;99.90;;;;;;4393310;32;20262;-67
2020/12/19 08:45:44;;;;;;;26.70;16.87;;;7.00;99.90;;;;;;4391094;32;20155;-68
2020/12/19 08:48:20;;;;;;;26.97;17.07;;;7.10;99.90;;;;;;4392088;32;20611;-68
2020/12/19 08:50:53;;;;;;;33.77;17.30;;;7.10;99.90;;;;;;4389173;32;20164;-69
2020/12/19 08:53:22;;;;;;;26.67;17.07;;;7.20;99.90;;;;;;4393450;32;20270;-67
2020/12/19 08:55:52;;;;;;;23.73;16.87;;;7.10;99.90;;;;;;4395499;32;20204;-67
2020/12/19 08:58:35;;;;;;;23.60;16.43;;;7.20;99.90;;;;;;4391732;32;20249;-67
2020/12/19 09:01:31;;;;;;;25.37;17.40;;;7.20;99.90;;;;;;4393368;32;20298;-69
2020/12/19 09:04:12;;;;;;;25.40;15.97;;;7.30;99.90;;;;;;4396952;32;20195;-67
2020/12/19 09:07:02;;;;;;;21.23;15.10;;;7.40;99.90;;;;;;4391374;32;20144;-68
2020/12/19 09:09:31;;;;;;;22.97;16.87;;;7.50;99.90;;;;;;4394643;32;20158;-68
2020/12/19 09:12:17;;;;;;;21.70;14.80;;;7.50;99.90;;;;;;4392823;32;20186;-68
2020/12/19 09:14:43;;;;;;;25.00;16.67;;;7.60;99.90;;;;;;4387981;32;20208;-66
2020/12/19 09:17:10;;;;;;;21.00;14.70;;;7.90;99.90;;;;;;4392218;32;20156;-67
2020/12/19 09:19:52;;;;;;;23.13;14.90;;;7.90;99.90;;;;;;4388695;32;20178;-67
2020/12/19 09:22:26;;;;;;;25.90;16.80;;;7.90;99.90;;;;;;4394940;32;20148;-66
2020/12/19 09:24:53;;;;;;;21.63;15.73;;;7.90;99.90;;;;;;4397469;32;20219;-66
2020/12/19 09:27:23;;;;;;;19.83;14.83;;;8.00;99.90;;;;;;4396608;32;20213;-67
2020/12/19 09:29:51;;;;;;;22.70;16.07;;;8.00;99.90;;;;;;4392366;32;20163;-68
2020/12/19 09:32:23;;;;;;;18.13;14.40;;;8.10;99.90;;;;;;4394192;32;20227;-67
2020/12/19 09:34:53;;;;;;;22.07;14.67;;;8.10;99.90;;;;;;4393214;32;20214;-69
2020/12/19 09:37:22;;;;;;;22.00;14.30;;;8.20;99.90;;;;;;4392899;32;20148;-68
2020/12/19 09:39:49;;;;;;;22.17;15.17;;;8.20;99.90;;;;;;4393163;32;20226;-68
2020/12/19 09:42:15;;;;;;;20.63;13.87;;;8.30;99.90;;;;;;4395476;32;20148;-67
2020/12/19 09:44:45;;;;;;;21.13;14.37;;;8.50;99.90;;;;;;4391001;32;20266;-67
2020/12/19 09:47:11;;;;;;;18.10;14.13;;;8.50;99.90;;;;;;4393198;32;20223;-67
2020/12/19 09:49:40;;;;;;;21.63;15.20;;;8.50;99.90;;;;;;4390013;32;20317;-67
2020/12/19 09:52:11;;;;;;;20.70;14.40;;;8.50;99.90;;;;;;4392533;32;20258;-66
2020/12/19 09:57:44;;;;;;;19.27;14.23;;;8.60;99.90;;;;;;4339666;33;20243;-68
2020/12/19 10:00:21;;;;;;;17.60;13.43;;;8.70;99.90;;;;;;4337819;33;20570;-68
2020/12/19 10:03:10;;;;;;;17.50;13.43;;;8.70;99.90;;;;;;4340429;33;20157;-69
2020/12/19 10:05:45;;;;;;;19.73;13.10;;;8.70;99.90;;;;;;4337051;33;20158;-68
2020/12/19 10:08:12;;;;;;;19.20;12.30;;;8.80;99.90;;;;;;4341428;32;20223;-67
2020/12/19 10:10:53;;;;;;;21.27;14.50;;;8.90;99.90;;;;;;4341745;33;20156;-67
2020/12/19 10:13:24;;;;;;;17.50;13.07;;;8.80;99.90;;;;;;4337091;33;20621;-68
2020/12/19 10:16:06;;;;;;;19.03;13.27;;;8.80;99.90;;;;;;4339867;33;20546;-68
2020/12/19 10:18:40;;;;;;;19.03;12.80;;;8.90;99.90;;;;;;4336812;33;20250;-68
2020/12/19 10:21:27;;;;;;;19.67;12.57;;;9.00;99.90;;;;;;4348315;32;20488;-69
2020/12/19 10:24:10;;;;;;;18.70;12.63;;;9.00;99.90;;;;;;4396062;32;20277;-67
2020/12/19 10:26:37;;;;;;;18.10;13.40;;;9.10;99.90;;;;;;4397655;32;20132;-68
2020/12/19 10:29:10;;;;;;;16.23;12.83;;;9.10;99.90;;;;;;4397152;32;20167;-68
2020/12/19 10:31:37;;;;;;;18.27;12.30;;;9.20;99.90;;;;;;4396570;32;20148;-67
2020/12/19 10:34:19;;;;;;;17.03;12.57;;;9.20;99.90;;;;;;4396298;32;20198;-68
2020/12/19 10:36:54;;;;;;;17.37;12.70;;;9.30;99.90;;;;;;4391212;32;20780;-67
2020/12/19 10:39:27;;;;;;;20.37;13.20;;;9.20;99.90;;;;;;4396244;32;20211;-67
2020/12/19 10:42:04;;;;;;;17.33;12.50;;;9.20;99.90;;;;;;4395811;32;20167;-67
2020/12/19 10:44:41;;;;;;;16.63;12.83;;;9.30;99.90;;;;;;4394386;32;20636;-69
2020/12/19 10:47:17;;;;;;;18.30;12.63;;;9.30;99.90;;;;;;4393473;32;20480;-68
2020/12/19 10:49:47;;;;;;;14.67;12.03;;;9.30;99.90;;;;;;4396594;32;20490;-67
2020/12/19 10:52:20;;;;;;;17.93;13.13;;;9.40;99.90;;;;;;4399075;32;20136;-69
2020/12/19 10:54:49;;;;;;;15.73;12.37;;;9.40;99.90;;;;;;4396938;32;20223;-69
2020/12/19 10:57:19;;;;;;;14.23;11.67;;;9.50;99.90;;;;;;4392132;32;20178;-68
2020/12/19 10:59:54;;;;;;;15.80;12.00;;;9.60;99.90;;;;;;4393492;32;20581;-68
2020/12/19 11:02:24;;;;;;;15.97;11.93;;;9.70;99.90;;;;;;4391251;32;20211;-69
2020/12/19 11:04:53;;;;;;;18.00;11.97;;;9.80;99.90;;;;;;4392481;32;20222;-68
2020/12/19 11:07:21;;;;;;;19.63;13.03;;;9.80;99.90;;;;;;4392026;32;20306;-69
2020/12/19 11:09:52;;;;;;;13.07;10.57;;;9.90;99.90;;;;;;4395432;32;20139;-69
2020/12/19 11:12:32;;;;;;;13.37;10.93;;;9.90;99.90;;;;;;4392353;32;20179;-69
2020/12/19 11:15:03;;;;;;;14.93;10.97;;;10.00;99.90;;;;;;4394013;32;20140;-69
2020/12/19 11:17:33;;;;;;;18.10;11.43;;;10.00;99.90;;;;;;4394285;32;20152;-69
2020/12/19 11:20:03;;;;;;;13.40;10.80;;;10.00;99.90;;;;;;4394102;32;20223;-69
2020/12/19 11:22:35;;;;;;;14.10;11.63;;;10.10;99.90;;;;;;4395524;32;20329;-69
2020/12/19 11:25:01;;;;;;;15.83;10.33;;;10.10;99.90;;;;;;4395207;32;20168;-67
2020/12/19 11:27:29;;;;;;;15.93;11.50;;;10.10;99.90;;;;;;4399692;32;20179;-70
2020/12/19 11:30:00;;;;;;;13.53;10.43;;;10.20;99.90;;;;;;4392902;32;20177;-68
2020/12/19 11:32:40;;;;;;;13.40;11.07;;;10.20;99.90;;;;;;4393698;32;20625;-68
2020/12/19 11:35:13;;;;;;;13.43;10.40;;;10.30;99.90;;;;;;4395417;32;20161;-68
2020/12/19 11:40:32;;;;;;;13.30;10.00;;;10.30;99.90;;;;;;4395024;32;20239;-68
2020/12/19 11:43:01;;;;;;;13.43;9.53;;;10.40;99.90;;;;;;4388890;32;20147;-67
2020/12/19 11:45:28;;;;;;;12.97;9.87;;;10.40;99.90;;;;;;4390694;32;20243;-67
2020/12/19 11:47:59;;;;;;;12.63;9.57;;;10.50;99.90;;;;;;4393223;32;20164;-69
2020/12/19 11:50:32;;;;;;;14.37;10.03;;;10.50;99.90;;;;;;4394180;32;20158;-68
2020/12/19 11:53:06;;;;;;;12.40;9.37;;;10.40;99.90;;;;;;4389150;32;20202;-68
2020/12/19 11:55:32;;;;;;;11.57;9.87;;;10.40;99.90;;;;;;4387721;32;20144;-68
2020/12/19 11:58:08;;;;;;;11.23;8.93;;;10.40;99.90;;;;;;4391288;32;21116;-69
2020/12/19 12:00:34;;;;;;;12.73;7.97;;;10.50;99.90;;;;;;4391719;32;20179;-67
2020/12/19 12:03:02;;;;;;;14.17;8.73;;;10.40;99.90;;;;;;4392773;32;20145;-68
2020/12/19 12:05:49;;;;;;;9.57;7.70;;;10.40;99.90;;;;;;4394892;32;20158;-69
2020/12/19 12:10:58;;;;;;;9.27;7.97;;;10.60;99.90;;;;;;4390179;32;20164;-69
2020/12/19 12:13:33;;;;;;;11.20;8.07;;;10.60;99.90;;;;;;4392648;32;20262;-67
2020/12/19 12:16:08;;;;;;;11.13;7.13;;;10.70;99.90;;;;;;4394191;32;20502;-67
2020/12/19 12:22:16;;;;;;;8.90;7.03;;;10.60;99.90;;;;;;4333206;33;20193;-68
2020/12/19 12:25:06;;;;;;;9.77;6.63;;;10.70;99.90;;;;;;4333343;33;20260;-67
2020/12/19 12:27:35;;;;;;;16.13;10.70;;;10.70;99.90;;;;;;4336575;33;20620;-68
2020/12/19 12:30:08;;;;;;;9.70;7.00;;;10.60;99.90;;;;;;4333471;33;20208;-68
2020/12/19 12:32:39;;;;;;;9.07;6.17;;;10.80;99.90;;;;;;4329197;33;20215;-67
2020/12/19 12:35:16;;;;;;;10.13;9.13;;;10.90;99.90;;;;;;4330043;33;20149;-68
2020/12/19 12:37:52;;;;;;;9.07;7.37;;;10.90;99.90;;;;;;4329790;33;20204;-67
2020/12/19 12:40:19;;;;;;;15.40;13.23;;;11.00;99.90;;;;;;4339882;33;20164;-68
2020/12/19 12:42:57;;;;;;;9.17;8.13;;;11.00;99.90;;;;;;4334672;33;20196;-67
2020/12/19 12:45:29;;;;;;;11.03;9.70;;;11.00;99.90;;;;;;4342284;33;20259;-68
2020/12/19 12:48:00;;;;;;;10.40;6.40;;;11.20;99.90;;;;;;4334661;33;20168;-67
2020/12/19 12:50:29;;;;;;;7.33;5.37;;;11.00;99.90;;;;;;4339754;33;20259;-68
2020/12/19 12:53:14;;;;;;;5.70;5.20;;;11.00;99.90;;;;;;4341144;33;20356;-68
2020/12/19 12:55:50;;;;;;;8.33;4.67;;;10.90;99.90;;;;;;4344155;33;20185;-67
2020/12/19 12:58:19;;;;;;;8.53;4.63;;;11.00;99.90;;;;;;4368169;32;20190;-68
2020/12/19 13:01:13;;;;;;;8.70;6.50;;;11.00;99.90;;;;;;4390636;32;20165;-67
2020/12/19 13:03:42;;;;;;;7.13;5.03;;;11.10;99.90;;;;;;4389724;32;20200;-67
2020/12/19 13:09:44;;;;;;;10.40;7.73;;;11.00;99.90;;;;;;4271051;33;20237;-67
2020/12/19 13:12:27;;;;;;;;;;;;;;;;;;;;;
2020/12/19 13:15:11;;;;;;;13.17;9.87;;;11.10;99.90;;;;;;4271227;33;20154;-67
2020/12/19 13:17:43;;;;;;;11.40;8.43;;;10.90;99.90;;;;;;4280594;33;20216;-67